Terminal Aerodrome Forecast
Issued by NWS

Current Version | Previous Version | Text Only | Print | Product List | Glossary On
Versions: 1 2 3 4 5 6 7 8 9 10 11 12 13 14 15 16 17 18 19 20
660
FTUS41 KPBZ 071503 AAA
TAFFKL
TAF AMD
KFKL 071503Z 0715/0812 18008KT P6SM BKN050
     FM071900 18010KT P6SM SCT050
     FM080200 16005KT P6SM BKN100
      AMD LTD TO CLD VIS AND WIND=

USA.gov is the U.S. government's official web portal to all federal, state and local government web resources and services.